Time;durP1;ratioP1;P1;durP2;ratioP2;P2;SDS_P1;SDS_P2;PMS_P1;PMS_P2;Temp;Humidity;BMP_temperature;BMP_pressure;BME280_temperature;BME280_humidity;BME280_pressure;Samples;Min_cycle;Max_cycle;Signal;HPM_P1;HPM_P2
2024/01/03 00:00:43;;;;;;;50.73;25.00;;;;;;;;;;4963692;28;20228;-72
2024/01/03 00:03:09;;;;;;;49.80;23.50;;;;;;;;;;4948263;28;20234;-72
2024/01/03 00:05:37;;;;;;;48.87;23.67;;;;;;;;;;4940510;28;20219;-74
2024/01/03 00:08:10;;;;;;;48.73;23.03;;;;;;;;;;4955682;28;20698;-74
2024/01/03 00:10:41;;;;;;;49.57;22.00;;;;;;;;;;4963283;28;20275;-73
2024/01/03 00:13:25;;;;;;;49.27;22.87;;;;;;;;;;4963375;28;20664;-73
2024/01/03 00:15:51;;;;;;;44.80;22.00;;;;;;;;;;4964116;28;20219;-72
2024/01/03 00:18:28;;;;;;;50.53;22.87;;;;;;;;;;4964806;28;20611;-72
2024/01/03 00:20:55;;;;;;;56.73;23.47;;;;;;;;;;4946421;28;20689;-73
2024/01/03 00:23:20;;;;;;;54.47;23.27;;;;;;;;;;4939696;28;20254;-73
2024/01/03 00:25:46;;;;;;;51.03;22.60;;;;;;;;;;4950612;28;20258;-73
2024/01/03 00:28:14;;;;;;;57.47;24.10;;;;;;;;;;4954529;28;20306;-73
2024/01/03 00:30:39;;;;;;;53.47;23.27;;;;;;;;;;4961380;28;20224;-72
2024/01/03 00:33:04;;;;;;;49.43;22.73;;;;;;;;;;4950593;28;20239;-73
2024/01/03 00:35:30;;;;;;;54.07;23.87;;;;;;;;;;4963969;28;20271;-73
2024/01/03 00:37:55;;;;;;;50.47;22.53;;;;;;;;;;4963938;28;20277;-73
2024/01/03 00:40:41;;;;;;;47.70;21.80;;;;;;;;;;4963787;28;20244;-72
2024/01/03 00:43:06;;;;;;;49.70;22.67;;;;;;;;;;4962340;28;20283;-73
2024/01/03 00:45:31;;;;;;;51.27;21.70;;;;;;;;;;4963848;28;20219;-72
2024/01/03 00:47:57;;;;;;;51.33;22.17;;;;;;;;;;4957027;28;20239;-72
2024/01/03 00:50:22;;;;;;;54.00;22.57;;;;;;;;;;4961936;28;20251;-73
2024/01/03 00:52:47;;;;;;;48.90;21.90;;;;;;;;;;4967898;28;20228;-73
2024/01/03 00:55:14;;;;;;;50.27;22.03;;;;;;;;;;4964315;28;20343;-72
2024/01/03 00:57:39;;;;;;;47.47;22.17;;;;;;;;;;4956632;28;20235;-73
2024/01/03 01:00:05;;;;;;;49.37;21.63;;;;;;;;;;4953781;28;20286;-72
2024/01/03 01:02:30;;;;;;;47.43;20.87;;;;;;;;;;4954740;28;20723;-72
2024/01/03 01:04:55;;;;;;;50.93;21.63;;;;;;;;;;4955991;28;20224;-72
2024/01/03 01:07:21;;;;;;;45.53;21.13;;;;;;;;;;4945388;28;20602;-73
2024/01/03 01:09:46;;;;;;;45.60;19.50;;;;;;;;;;4946827;28;20720;-73
2024/01/03 01:12:11;;;;;;;45.93;20.57;;;;;;;;;;4950769;28;20262;-73
2024/01/03 01:14:37;;;;;;;44.43;20.13;;;;;;;;;;4967405;28;20212;-73
2024/01/03 01:17:02;;;;;;;43.07;20.33;;;;;;;;;;4966642;28;20232;-73
2024/01/03 01:19:27;;;;;;;44.40;20.20;;;;;;;;;;4968177;28;20299;-73
2024/01/03 01:21:53;;;;;;;48.67;21.00;;;;;;;;;;4963200;28;20626;-73
2024/01/03 01:24:18;;;;;;;47.33;20.70;;;;;;;;;;4966630;28;20234;-73
2024/01/03 01:26:44;;;;;;;42.83;20.20;;;;;;;;;;4949447;28;20231;-72
2024/01/03 01:29:09;;;;;;;44.30;21.30;;;;;;;;;;4958255;28;20839;-71
2024/01/03 01:31:34;;;;;;;42.23;19.80;;;;;;;;;;4966165;28;20660;-73
2024/01/03 01:34:00;;;;;;;48.47;21.20;;;;;;;;;;4961329;28;20231;-72
2024/01/03 01:36:25;;;;;;;48.30;20.73;;;;;;;;;;4965541;28;20701;-73
2024/01/03 01:38:51;;;;;;;50.63;22.50;;;;;;;;;;4965590;28;20230;-73
2024/01/03 01:41:16;;;;;;;46.77;21.20;;;;;;;;;;4956571;28;20232;-73
2024/01/03 01:43:42;;;;;;;42.77;20.87;;;;;;;;;;4946042;28;20978;-74
2024/01/03 01:46:07;;;;;;;51.73;22.10;;;;;;;;;;4966311;28;20219;-74
2024/01/03 01:48:32;;;;;;;47.07;21.20;;;;;;;;;;4966143;28;20632;-74
2024/01/03 01:50:58;;;;;;;46.77;21.40;;;;;;;;;;4967099;28;20224;-73
2024/01/03 01:53:23;;;;;;;47.77;21.57;;;;;;;;;;4952749;28;20275;-73
2024/01/03 01:55:48;;;;;;;44.17;20.93;;;;;;;;;;4951996;28;20275;-74
2024/01/03 01:58:14;;;;;;;46.97;21.93;;;;;;;;;;4966487;28;20224;-72
2024/01/03 02:00:39;;;;;;;43.30;20.60;;;;;;;;;;4966806;28;20633;-72
2024/01/03 02:03:05;;;;;;;50.43;22.23;;;;;;;;;;4947789;28;20227;-73
2024/01/03 02:05:30;;;;;;;44.53;21.30;;;;;;;;;;4962257;28;20236;-72
2024/01/03 02:07:56;;;;;;;42.57;21.73;;;;;;;;;;4954951;28;20236;-73
2024/01/03 02:10:21;;;;;;;45.80;21.03;;;;;;;;;;4960437;28;20761;-74
2024/01/03 02:12:46;;;;;;;45.03;20.87;;;;;;;;;;4959183;28;20224;-73
2024/01/03 02:15:12;;;;;;;43.43;21.20;;;;;;;;;;4962190;28;20220;-73
2024/01/03 02:17:38;;;;;;;42.47;21.13;;;;;;;;;;4948701;28;20615;-72
2024/01/03 02:20:04;;;;;;;49.10;22.00;;;;;;;;;;4959550;28;20228;-72
2024/01/03 02:22:29;;;;;;;46.50;22.00;;;;;;;;;;4957165;28;20315;-73
2024/01/03 02:24:54;;;;;;;43.67;21.20;;;;;;;;;;4966940;28;20222;-73
2024/01/03 02:27:20;;;;;;;47.13;21.97;;;;;;;;;;4965474;28;20313;-73
2024/01/03 02:29:45;;;;;;;43.73;19.97;;;;;;;;;;4960666;28;20228;-73
2024/01/03 02:32:10;;;;;;;43.87;20.47;;;;;;;;;;4965750;28;21124;-73
2024/01/03 02:34:36;;;;;;;39.67;19.97;;;;;;;;;;4959778;28;20239;-73
2024/01/03 02:37:01;;;;;;;40.27;19.23;;;;;;;;;;4947594;28;20278;-74
2024/01/03 02:39:26;;;;;;;38.13;19.03;;;;;;;;;;4966619;28;20243;-73
2024/01/03 02:41:52;;;;;;;40.97;19.07;;;;;;;;;;4965579;28;20216;-74
2024/01/03 02:44:17;;;;;;;41.17;18.37;;;;;;;;;;4965958;28;20315;-72
2024/01/03 02:46:42;;;;;;;35.93;18.03;;;;;;;;;;4965980;28;20239;-73
2024/01/03 02:49:09;;;;;;;33.87;16.87;;;;;;;;;;4961652;28;20243;-73
2024/01/03 02:51:34;;;;;;;32.90;16.47;;;;;;;;;;4948474;28;20228;-73
2024/01/03 02:53:59;;;;;;;35.37;17.07;;;;;;;;;;4957443;28;20278;-73
2024/01/03 02:56:25;;;;;;;34.17;16.47;;;;;;;;;;4939856;28;20271;-73
2024/01/03 02:58:50;;;;;;;33.47;15.43;;;;;;;;;;4957715;28;20239;-73
2024/01/03 03:01:15;;;;;;;30.40;15.60;;;;;;;;;;4959522;28;20274;-73
2024/01/03 03:03:41;;;;;;;30.87;15.20;;;;;;;;;;4966081;28;20311;-73
2024/01/03 03:06:07;;;;;;;29.93;15.10;;;;;;;;;;4958448;28;20976;-73
2024/01/03 03:08:32;;;;;;;27.43;14.67;;;;;;;;;;4958060;28;20655;-73
2024/01/03 03:10:57;;;;;;;33.00;14.30;;;;;;;;;;4947731;28;20224;-74
2024/01/03 03:13:24;;;;;;;30.33;14.77;;;;;;;;;;4958865;28;20224;-73
2024/01/03 03:15:49;;;;;;;27.30;14.83;;;;;;;;;;4962282;28;20668;-74
2024/01/03 03:18:14;;;;;;;31.87;15.40;;;;;;;;;;4955448;28;20228;-73
2024/01/03 03:20:40;;;;;;;29.80;14.40;;;;;;;;;;4965406;28;20326;-73
2024/01/03 03:23:05;;;;;;;33.67;15.40;;;;;;;;;;4955790;28;20261;-73
2024/01/03 03:25:30;;;;;;;46.97;21.17;;;;;;;;;;4965890;28;20247;-73
2024/01/03 03:27:56;;;;;;;71.97;29.87;;;;;;;;;;4956111;28;20268;-72
2024/01/03 03:30:22;;;;;;;75.40;30.93;;;;;;;;;;4956694;28;20436;-73
2024/01/03 03:32:47;;;;;;;71.73;29.67;;;;;;;;;;4965749;28;20224;-73
2024/01/03 03:35:13;;;;;;;75.87;30.90;;;;;;;;;;4962413;28;20231;-73
2024/01/03 03:37:38;;;;;;;77.57;32.03;;;;;;;;;;4940177;28;20223;-73
2024/01/03 03:40:04;;;;;;;73.40;31.33;;;;;;;;;;4953995;28;20228;-73
2024/01/03 03:42:29;;;;;;;72.70;30.77;;;;;;;;;;4960956;28;20315;-73
2024/01/03 03:44:54;;;;;;;73.27;30.27;;;;;;;;;;4956799;28;20224;-73
2024/01/03 03:47:20;;;;;;;78.47;30.53;;;;;;;;;;4963242;28;20314;-73
2024/01/03 03:49:46;;;;;;;70.70;29.67;;;;;;;;;;4955843;28;20764;-73
2024/01/03 03:52:12;;;;;;;73.17;29.63;;;;;;;;;;4963734;28;20232;-72
2024/01/03 03:54:37;;;;;;;73.53;30.80;;;;;;;;;;4952759;28;20217;-73
2024/01/03 03:57:02;;;;;;;71.43;30.43;;;;;;;;;;4960961;28;20231;-72
2024/01/03 03:59:28;;;;;;;68.73;28.87;;;;;;;;;;4958610;28;20228;-72
2024/01/03 04:01:54;;;;;;;56.43;25.07;;;;;;;;;;4962482;28;20232;-72
2024/01/03 04:04:20;;;;;;;64.10;26.83;;;;;;;;;;4957939;28;20227;-72
2024/01/03 04:06:45;;;;;;;63.57;27.07;;;;;;;;;;4947326;28;20231;-72
2024/01/03 04:09:10;;;;;;;50.27;21.93;;;;;;;;;;4958066;28;20251;-73
2024/01/03 04:11:42;;;;;;;54.30;23.27;;;;;;;;;;4951051;28;20216;-72
2024/01/03 04:14:08;;;;;;;49.73;21.90;;;;;;;;;;4964071;28;20235;-73
2024/01/03 04:16:34;;;;;;;48.93;21.33;;;;;;;;;;4960436;28;20750;-73
2024/01/03 04:18:59;;;;;;;46.83;21.20;;;;;;;;;;4950009;28;20216;-72
2024/01/03 04:21:25;;;;;;;49.93;21.27;;;;;;;;;;4959399;28;20231;-72
2024/01/03 04:23:50;;;;;;;49.23;21.43;;;;;;;;;;4956004;28;20224;-73
2024/01/03 04:26:15;;;;;;;49.67;20.50;;;;;;;;;;4962306;28;20235;-72
2024/01/03 04:28:41;;;;;;;46.80;21.63;;;;;;;;;;4957258;28;20717;-72
2024/01/03 04:31:06;;;;;;;48.27;21.07;;;;;;;;;;4957471;28;20335;-72
2024/01/03 04:33:31;;;;;;;44.00;20.13;;;;;;;;;;4957150;28;20603;-72
2024/01/03 04:35:57;;;;;;;42.10;19.93;;;;;;;;;;4956589;28;20839;-74
2024/01/03 04:38:22;;;;;;;42.37;19.90;;;;;;;;;;4957109;28;20224;-73
2024/01/03 04:40:47;;;;;;;42.00;19.50;;;;;;;;;;4945590;28;20780;-72
2024/01/03 04:43:13;;;;;;;41.83;19.10;;;;;;;;;;4956199;28;20248;-72
2024/01/03 04:45:38;;;;;;;40.10;19.00;;;;;;;;;;4957137;28;20247;-72
2024/01/03 04:48:04;;;;;;;40.20;19.60;;;;;;;;;;4948320;28;20244;-71
2024/01/03 04:50:29;;;;;;;43.23;19.43;;;;;;;;;;4961797;28;20224;-73
2024/01/03 04:52:55;;;;;;;44.80;19.47;;;;;;;;;;4941699;28;20727;-73
2024/01/03 04:55:23;;;;;;;41.97;19.60;;;;;;;;;;4942865;28;20228;-72
2024/01/03 04:57:49;;;;;;;45.03;19.37;;;;;;;;;;4960011;28;20720;-73
2024/01/03 05:00:14;;;;;;;43.70;20.03;;;;;;;;;;4955130;28;20251;-72
2024/01/03 05:02:40;;;;;;;40.20;20.00;;;;;;;;;;4962552;28;20274;-72
2024/01/03 05:05:05;;;;;;;43.97;20.20;;;;;;;;;;4944811;28;20369;-73
2024/01/03 05:07:33;;;;;;;45.70;20.10;;;;;;;;;;4961786;28;20775;-73
2024/01/03 05:09:58;;;;;;;46.20;19.73;;;;;;;;;;4954413;28;20226;-72
2024/01/03 05:12:24;;;;;;;41.87;18.80;;;;;;;;;;4944701;28;20220;-73
2024/01/03 05:14:49;;;;;;;40.00;19.00;;;;;;;;;;4939558;28;20224;-73
2024/01/03 05:17:14;;;;;;;43.00;20.10;;;;;;;;;;4962560;28;20311;-73
2024/01/03 05:19:40;;;;;;;38.07;18.37;;;;;;;;;;4952055;28;20224;-73
2024/01/03 05:22:05;;;;;;;41.20;18.83;;;;;;;;;;4953722;28;20223;-72
2024/01/03 05:24:31;;;;;;;39.97;18.53;;;;;;;;;;4962311;28;20230;-73
2024/01/03 05:26:56;;;;;;;41.13;18.30;;;;;;;;;;4957797;28;20686;-73
2024/01/03 05:29:21;;;;;;;40.63;19.17;;;;;;;;;;4960806;28;20302;-73
2024/01/03 05:31:47;;;;;;;46.87;21.13;;;;;;;;;;4944149;28;20800;-72
2024/01/03 05:34:12;;;;;;;59.60;24.67;;;;;;;;;;4960321;28;20232;-72
2024/01/03 05:36:37;;;;;;;43.97;19.80;;;;;;;;;;4962870;28;20274;-72
2024/01/03 05:39:03;;;;;;;46.13;21.87;;;;;;;;;;4954065;28;20231;-73
2024/01/03 05:41:29;;;;;;;49.27;20.33;;;;;;;;;;4961581;28;20231;-73
2024/01/03 05:43:54;;;;;;;47.63;20.47;;;;;;;;;;4944607;28;20220;-73
2024/01/03 05:46:20;;;;;;;45.47;21.37;;;;;;;;;;4944096;28;20224;-72
2024/01/03 05:48:45;;;;;;;42.30;19.63;;;;;;;;;;4959629;28;20312;-71
2024/01/03 05:51:11;;;;;;;39.97;18.87;;;;;;;;;;4943856;28;20239;-72
2024/01/03 05:53:36;;;;;;;39.53;18.23;;;;;;;;;;4945241;28;20244;-73
2024/01/03 05:56:01;;;;;;;39.33;18.30;;;;;;;;;;4945643;28;20320;-72
2024/01/03 05:58:27;;;;;;;37.97;17.70;;;;;;;;;;4956002;28;20228;-71
2024/01/03 06:00:52;;;;;;;31.67;15.63;;;;;;;;;;4962407;28;20243;-71
2024/01/03 06:03:18;;;;;;;35.23;15.63;;;;;;;;;;4958421;28;20225;-72
2024/01/03 06:05:43;;;;;;;32.27;14.90;;;;;;;;;;4957141;28;20220;-72
2024/01/03 06:08:08;;;;;;;31.90;14.67;;;;;;;;;;4964827;28;20339;-71
2024/01/03 06:10:34;;;;;;;37.30;14.67;;;;;;;;;;4965771;28;20844;-72
2024/01/03 06:12:59;;;;;;;31.37;14.97;;;;;;;;;;4960497;28;20265;-71
2024/01/03 06:15:24;;;;;;;29.73;14.33;;;;;;;;;;4964994;28;20224;-71
2024/01/03 06:17:50;;;;;;;33.67;14.97;;;;;;;;;;4964642;28;20293;-74
2024/01/03 06:20:15;;;;;;;32.27;14.80;;;;;;;;;;4950975;28;20227;-71
2024/01/03 06:22:40;;;;;;;29.20;14.20;;;;;;;;;;4961074;28;20239;-72
2024/01/03 06:25:06;;;;;;;28.73;13.53;;;;;;;;;;4960774;28;20251;-71
2024/01/03 06:27:31;;;;;;;29.63;14.17;;;;;;;;;;4965270;28;20224;-72
2024/01/03 06:29:57;;;;;;;29.50;13.07;;;;;;;;;;4965564;28;20220;-71
2024/01/03 06:32:22;;;;;;;32.13;14.70;;;;;;;;;;4949209;28;20231;-73
2024/01/03 06:34:47;;;;;;;33.00;14.87;;;;;;;;;;4957538;28;20221;-73
2024/01/03 06:37:13;;;;;;;30.57;14.63;;;;;;;;;;4957306;28;20230;-73
2024/01/03 06:39:38;;;;;;;28.77;13.30;;;;;;;;;;4966117;28;20224;-73
2024/01/03 06:42:04;;;;;;;29.50;14.60;;;;;;;;;;4956100;28;20831;-73
2024/01/03 06:44:29;;;;;;;26.70;14.03;;;;;;;;;;4958837;28;20224;-73
2024/01/03 06:46:55;;;;;;;28.03;13.40;;;;;;;;;;4963872;28;20290;-72
2024/01/03 06:49:21;;;;;;;27.87;13.23;;;;;;;;;;4956364;28;20740;-74
2024/01/03 06:51:47;;;;;;;25.40;13.23;;;;;;;;;;4957473;28;20230;-72
2024/01/03 06:54:13;;;;;;;27.53;12.73;;;;;;;;;;4962938;28;20324;-73
2024/01/03 06:56:38;;;;;;;30.03;12.97;;;;;;;;;;4967636;28;20299;-73
2024/01/03 06:59:03;;;;;;;27.40;13.17;;;;;;;;;;4942251;28;20236;-73
2024/01/03 07:01:30;;;;;;;26.83;12.60;;;;;;;;;;4950186;28;20316;-73
2024/01/03 07:03:58;;;;;;;28.20;13.17;;;;;;;;;;4956665;28;20220;-74
2024/01/03 07:06:23;;;;;;;25.67;13.03;;;;;;;;;;4955729;28;20228;-74
2024/01/03 07:08:49;;;;;;;24.87;12.73;;;;;;;;;;4963461;28;20242;-72
2024/01/03 07:11:14;;;;;;;29.33;14.60;;;;;;;;;;4960863;28;20977;-72
2024/01/03 07:13:40;;;;;;;27.27;13.50;;;;;;;;;;4966088;28;20224;-73
2024/01/03 07:16:05;;;;;;;28.10;12.53;;;;;;;;;;4964263;28;20235;-73
2024/01/03 07:18:30;;;;;;;25.40;12.90;;;;;;;;;;4964894;28;20251;-72
2024/01/03 07:20:56;;;;;;;27.77;13.33;;;;;;;;;;4964525;28;20220;-73
2024/01/03 07:23:21;;;;;;;28.63;14.37;;;;;;;;;;4958429;28;21947;-73
2024/01/03 07:25:46;;;;;;;32.20;15.00;;;;;;;;;;4942022;28;20224;-73
2024/01/03 07:28:13;;;;;;;33.33;15.03;;;;;;;;;;4964094;28;20240;-73
2024/01/03 07:30:39;;;;;;;33.03;15.83;;;;;;;;;;4957328;28;20224;-72
2024/01/03 07:33:04;;;;;;;32.47;15.73;;;;;;;;;;4964105;28;20236;-71
2024/01/03 07:35:29;;;;;;;33.63;16.40;;;;;;;;;;4953653;28;20224;-73
2024/01/03 07:37:55;;;;;;;33.80;16.13;;;;;;;;;;4964707;28;20234;-72
2024/01/03 07:40:20;;;;;;;36.47;16.90;;;;;;;;;;4938688;28;20228;-74
2024/01/03 07:42:46;;;;;;;37.07;15.93;;;;;;;;;;4961012;28;20363;-73
2024/01/03 07:45:11;;;;;;;34.53;15.37;;;;;;;;;;4958546;28;20235;-72
2024/01/03 07:47:37;;;;;;;28.53;14.67;;;;;;;;;;4964530;28;20232;-73
2024/01/03 07:50:02;;;;;;;33.33;15.37;;;;;;;;;;4956936;28;20223;-74
2024/01/03 07:52:27;;;;;;;30.30;14.10;;;;;;;;;;4957925;28;20232;-73
2024/01/03 07:54:53;;;;;;;27.37;13.97;;;;;;;;;;4957653;28;20994;-74
2024/01/03 07:57:19;;;;;;;28.53;14.00;;;;;;;;;;4955314;28;20224;-73
2024/01/03 07:59:45;;;;;;;25.80;13.80;;;;;;;;;;4962883;28;20319;-73
2024/01/03 08:02:13;;;;;;;26.57;13.83;;;;;;;;;;4964381;28;20243;-73
2024/01/03 08:04:40;;;;;;;27.27;13.20;;;;;;;;;;4947475;28;20230;-72
2024/01/03 08:07:05;;;;;;;29.47;14.30;;;;;;;;;;4939204;28;20317;-73
2024/01/03 08:09:32;;;;;;;33.83;16.00;;;;;;;;;;4947738;28;20311;-74
2024/01/03 08:11:57;;;;;;;34.90;17.50;;;;;;;;;;4956324;28;20243;-73
2024/01/03 08:14:23;;;;;;;33.27;16.57;;;;;;;;;;4965759;28;20228;-73
2024/01/03 08:16:48;;;;;;;50.13;23.10;;;;;;;;;;4964789;28;20289;-72
2024/01/03 08:19:14;;;;;;;60.57;27.27;;;;;;;;;;4956320;28;20231;-74
2024/01/03 08:21:39;;;;;;;38.10;18.47;;;;;;;;;;4944797;28;20251;-73
2024/01/03 08:24:05;;;;;;;31.07;15.03;;;;;;;;;;4947790;28;20267;-72
2024/01/03 08:26:31;;;;;;;32.47;16.20;;;;;;;;;;4964826;28;20220;-73
2024/01/03 08:28:56;;;;;;;29.63;15.80;;;;;;;;;;4945394;28;20267;-74
2024/01/03 08:31:22;;;;;;;30.93;15.57;;;;;;;;;;4962765;28;20247;-73
2024/01/03 08:33:47;;;;;;;31.03;14.90;;;;;;;;;;4954874;28;20259;-73
2024/01/03 08:36:13;;;;;;;43.20;21.50;;;;;;;;;;4955635;28;20220;-74
2024/01/03 08:38:38;;;;;;;64.40;28.43;;;;;;;;;;4958310;28;20246;-74
2024/01/03 08:41:11;;;;;;;65.93;31.60;;;;;;;;;;4963974;28;20324;-73
2024/01/03 08:43:36;;;;;;;65.30;30.97;;;;;;;;;;4964091;28;20232;-74
2024/01/03 08:46:04;;;;;;;64.60;29.20;;;;;;;;;;4954560;28;21040;-74
2024/01/03 08:48:30;;;;;;;53.47;25.87;;;;;;;;;;4964563;28;20306;-73
2024/01/03 08:50:55;;;;;;;56.47;23.13;;;;;;;;;;4964088;28;20220;-73
2024/01/03 08:53:21;;;;;;;39.40;19.40;;;;;;;;;;4963506;28;20238;-73
2024/01/03 08:55:46;;;;;;;39.70;19.43;;;;;;;;;;4963541;28;20220;-73
2024/01/03 08:58:11;;;;;;;42.80;19.20;;;;;;;;;;4963121;28;20839;-73
2024/01/03 09:00:37;;;;;;;42.03;19.30;;;;;;;;;;4960410;28;20254;-73
2024/01/03 09:03:02;;;;;;;43.47;20.67;;;;;;;;;;4959355;28;20224;-73
2024/01/03 09:05:27;;;;;;;41.97;20.57;;;;;;;;;;4964310;28;20220;-73
2024/01/03 09:07:53;;;;;;;45.53;20.80;;;;;;;;;;4964071;28;21050;-73
2024/01/03 09:10:18;;;;;;;47.57;21.57;;;;;;;;;;4962291;28;20238;-73
2024/01/03 09:12:43;;;;;;;46.13;22.20;;;;;;;;;;4961432;28;20220;-73
2024/01/03 09:15:09;;;;;;;47.77;21.90;;;;;;;;;;4962592;28;20262;-73
2024/01/03 09:17:34;;;;;;;47.00;21.87;;;;;;;;;;4948498;28;20239;-73
2024/01/03 09:20:00;;;;;;;47.47;22.37;;;;;;;;;;4946181;28;20255;-73
2024/01/03 09:22:25;;;;;;;44.00;21.00;;;;;;;;;;4947231;28;20231;-74
2024/01/03 09:24:51;;;;;;;44.40;20.77;;;;;;;;;;4959304;28;20936;-72
2024/01/03 09:27:17;;;;;;;48.90;22.03;;;;;;;;;;4939671;28;20896;-71
2024/01/03 09:29:43;;;;;;;44.53;21.60;;;;;;;;;;4960808;28;20283;-72
2024/01/03 09:32:08;;;;;;;44.40;21.30;;;;;;;;;;4961776;28;20228;-72
2024/01/03 09:34:40;;;;;;;41.37;20.67;;;;;;;;;;4966560;28;20228;-73
2024/01/03 09:37:06;;;;;;;54.03;23.27;;;;;;;;;;4949058;28;20224;-73
2024/01/03 09:39:31;;;;;;;47.33;22.60;;;;;;;;;;4945512;28;20239;-73
2024/01/03 09:41:57;;;;;;;51.70;23.27;;;;;;;;;;4941633;28;20246;-73
2024/01/03 09:44:22;;;;;;;48.10;22.67;;;;;;;;;;4964023;28;20224;-72
2024/01/03 09:46:49;;;;;;;51.90;23.00;;;;;;;;;;4950612;28;20260;-73
2024/01/03 09:49:15;;;;;;;46.80;21.43;;;;;;;;;;4962171;28;20247;-73
2024/01/03 09:51:40;;;;;;;37.97;19.47;;;;;;;;;;4958429;28;20224;-72
2024/01/03 09:54:07;;;;;;;38.13;19.70;;;;;;;;;;4948870;28;20224;-73
2024/01/03 09:56:34;;;;;;;39.87;19.33;;;;;;;;;;4960271;28;20228;-73
2024/01/03 09:58:59;;;;;;;44.90;20.53;;;;;;;;;;4960702;28;20239;-73
2024/01/03 10:01:25;;;;;;;49.03;21.13;;;;;;;;;;4958366;28;20224;-72
2024/01/03 10:03:50;;;;;;;41.13;20.47;;;;;;;;;;4943685;28;20235;-73
2024/01/03 10:06:15;;;;;;;42.40;20.70;;;;;;;;;;4965287;28;20228;-73
2024/01/03 15:07:27;;;;;;;20.37;9.80;;;;;;;;;;4964200;28;20272;-73
2024/01/03 15:09:53;;;;;;;17.70;9.33;;;;;;;;;;4948384;28;20239;-75
2024/01/03 15:12:18;;;;;;;22.50;9.80;;;;;;;;;;4947826;28;20227;-73
2024/01/03 15:14:44;;;;;;;22.97;9.77;;;;;;;;;;4963758;28;20254;-73
2024/01/03 15:17:10;;;;;;;22.90;9.90;;;;;;;;;;4959183;28;20228;-73
2024/01/03 15:19:36;;;;;;;26.57;11.33;;;;;;;;;;4948405;28;20231;-72
2024/01/03 15:22:13;;;;;;;26.03;11.73;;;;;;;;;;4963413;28;20232;-73
2024/01/03 15:24:38;;;;;;;28.90;12.73;;;;;;;;;;4948870;28;20717;-73
2024/01/03 15:27:03;;;;;;;27.67;12.67;;;;;;;;;;4960272;28;20223;-73
2024/01/03 15:29:29;;;;;;;22.50;11.83;;;;;;;;;;4964781;28;22068;-73
2024/01/03 15:31:54;;;;;;;22.77;11.00;;;;;;;;;;4945945;28;20227;-73
2024/01/03 15:34:20;;;;;;;22.23;10.97;;;;;;;;;;4963286;28;20227;-74
2024/01/03 15:36:45;;;;;;;26.83;12.20;;;;;;;;;;4965699;28;20212;-72
2024/01/03 15:39:11;;;;;;;30.60;11.90;;;;;;;;;;4961042;28;20232;-72
2024/01/03 15:41:36;;;;;;;29.07;12.60;;;;;;;;;;4958256;28;20286;-73
2024/01/03 15:44:02;;;;;;;24.23;12.00;;;;;;;;;;4947130;28;20403;-73
2024/01/03 15:46:28;;;;;;;26.90;12.23;;;;;;;;;;4958830;28;20252;-73
2024/01/03 15:49:12;;;;;;;25.03;12.67;;;;;;;;;;4947335;28;20231;-72
2024/01/03 15:51:56;;;;;;;26.60;13.10;;;;;;;;;;4964102;28;20224;-73
2024/01/03 15:54:21;;;;;;;27.13;12.80;;;;;;;;;;4962883;28;20220;-73
2024/01/03 15:56:47;;;;;;;24.43;12.53;;;;;;;;;;4957116;28;20216;-72
2024/01/03 15:59:13;;;;;;;25.33;13.50;;;;;;;;;;4957741;28;20232;-72
2024/01/03 16:01:38;;;;;;;29.53;14.17;;;;;;;;;;4958912;28;20227;-73
2024/01/03 16:04:04;;;;;;;35.87;14.87;;;;;;;;;;4947241;28;20232;-72
2024/01/03 16:06:29;;;;;;;50.30;26.87;;;;;;;;;;4948289;28;20263;-73
2024/01/03 16:08:54;;;;;;;40.67;20.23;;;;;;;;;;4959609;28;20765;-74
2024/01/03 16:11:20;;;;;;;29.93;15.73;;;;;;;;;;4963841;28;20228;-73
2024/01/03 16:13:45;;;;;;;36.33;16.27;;;;;;;;;;4964420;28;20231;-74
2024/01/03 16:16:11;;;;;;;32.47;15.80;;;;;;;;;;4958588;28;21011;-72
2024/01/03 16:18:36;;;;;;;37.73;16.80;;;;;;;;;;4964849;28;20227;-72
2024/01/03 16:21:01;;;;;;;36.93;18.30;;;;;;;;;;4956508;28;20319;-72
2024/01/03 16:23:27;;;;;;;39.17;18.53;;;;;;;;;;4958787;28;20228;-72
2024/01/03 16:25:52;;;;;;;42.37;18.63;;;;;;;;;;4957246;28;20240;-72
2024/01/03 16:28:17;;;;;;;43.30;20.20;;;;;;;;;;4962744;28;20320;-72
2024/01/03 16:30:43;;;;;;;51.97;24.17;;;;;;;;;;4964145;28;20227;-73
2024/01/03 16:33:09;;;;;;;46.97;20.97;;;;;;;;;;4942246;28;20243;-72
2024/01/03 16:35:34;;;;;;;44.97;20.57;;;;;;;;;;4963348;28;20254;-73
2024/01/03 16:38:00;;;;;;;56.30;23.67;;;;;;;;;;4940161;28;20302;-73
2024/01/03 16:40:25;;;;;;;60.23;24.90;;;;;;;;;;4960338;28;20238;-72
2024/01/03 16:42:51;;;;;;;53.93;23.53;;;;;;;;;;4945455;28;20227;-73
2024/01/03 16:45:18;;;;;;;47.80;20.73;;;;;;;;;;4964577;28;22018;-73
2024/01/03 16:47:44;;;;;;;43.00;19.13;;;;;;;;;;4947000;28;20228;-74
2024/01/03 16:50:09;;;;;;;49.27;21.87;;;;;;;;;;4953677;28;20254;-74
2024/01/03 16:52:36;;;;;;;51.83;21.90;;;;;;;;;;4967781;28;20235;-73
2024/01/03 16:55:03;;;;;;;47.20;21.90;;;;;;;;;;4954146;28;20717;-73
2024/01/03 16:57:28;;;;;;;52.63;22.67;;;;;;;;;;4945356;28;20232;-73
2024/01/03 16:59:54;;;;;;;53.80;23.40;;;;;;;;;;4963134;28;20239;-73
2024/01/03 17:02:19;;;;;;;51.40;23.43;;;;;;;;;;4956546;28;20690;-72
2024/01/03 17:04:44;;;;;;;54.60;24.07;;;;;;;;;;4963164;28;20255;-74
2024/01/03 17:07:10;;;;;;;53.57;22.80;;;;;;;;;;4976486;28;20332;-74
2024/01/03 17:09:35;;;;;;;70.77;31.37;;;;;;;;;;4961392;28;20232;-74
2024/01/03 17:12:00;;;;;;;43.87;21.33;;;;;;;;;;4956226;28;20230;-74
2024/01/03 17:14:26;;;;;;;49.03;21.00;;;;;;;;;;4963413;28;20709;-73
2024/01/03 17:16:51;;;;;;;47.77;21.57;;;;;;;;;;4963798;28;20227;-73
2024/01/03 17:19:16;;;;;;;51.33;23.03;;;;;;;;;;4954805;28;20387;-74
2024/01/03 17:21:42;;;;;;;52.13;25.67;;;;;;;;;;4949927;28;20220;-73
2024/01/03 17:24:07;;;;;;;59.53;27.23;;;;;;;;;;4961520;28;20270;-73
2024/01/03 17:26:36;;;;;;;60.67;28.13;;;;;;;;;;4959298;28;20709;-74
2024/01/03 17:29:03;;;;;;;61.00;27.03;;;;;;;;;;4946452;28;20229;-74
2024/01/03 17:31:28;;;;;;;66.10;31.20;;;;;;;;;;4961644;28;20267;-74
2024/01/03 17:33:54;;;;;;;63.67;28.93;;;;;;;;;;4961995;28;20846;-73
2024/01/03 17:36:20;;;;;;;59.13;28.23;;;;;;;;;;4945808;28;20294;-74
2024/01/03 17:38:45;;;;;;;57.57;28.03;;;;;;;;;;4963126;28;20224;-73
2024/01/03 17:41:20;;;;;;;46.53;22.00;;;;;;;;;;4960668;28;20228;-73
2024/01/03 17:43:45;;;;;;;44.33;20.73;;;;;;;;;;4953493;28;20229;-73
2024/01/03 17:46:11;;;;;;;47.47;21.40;;;;;;;;;;4945258;28;20224;-72
2024/01/03 17:48:36;;;;;;;41.90;20.73;;;;;;;;;;4945510;28;20772;-73
2024/01/03 17:51:04;;;;;;;50.57;23.50;;;;;;;;;;4947512;28;20348;-72
2024/01/03 17:53:30;;;;;;;46.03;21.87;;;;;;;;;;4962814;28;20697;-73
2024/01/03 17:55:55;;;;;;;46.73;21.00;;;;;;;;;;4981323;28;20224;-72
2024/01/03 17:58:21;;;;;;;46.80;20.53;;;;;;;;;;4960310;28;20231;-73
2024/01/03 18:00:46;;;;;;;38.77;19.00;;;;;;;;;;4960018;28;20231;-73
2024/01/03 18:03:12;;;;;;;40.17;18.53;;;;;;;;;;4958285;28;20319;-73
2024/01/03 18:05:40;;;;;;;34.87;16.17;;;;;;;;;;4966109;28;20248;-73
2024/01/03 18:08:06;;;;;;;34.67;16.07;;;;;;;;;;4964953;28;20669;-73
2024/01/03 18:10:31;;;;;;;35.00;15.90;;;;;;;;;;4947961;28;20224;-73
2024/01/03 18:12:57;;;;;;;34.33;15.70;;;;;;;;;;4959577;28;20228;-72
2024/01/03 18:15:22;;;;;;;32.57;15.03;;;;;;;;;;4965042;28;20235;-73
2024/01/03 18:17:48;;;;;;;31.20;15.20;;;;;;;;;;4958599;28;20294;-74
2024/01/03 18:20:14;;;;;;;34.53;15.23;;;;;;;;;;4963412;28;20255;-73
2024/01/03 18:22:46;;;;;;;35.37;15.20;;;;;;;;;;4963773;28;20224;-73
2024/01/03 18:25:11;;;;;;;29.57;14.63;;;;;;;;;;4965324;28;20223;-74
2024/01/03 18:27:37;;;;;;;31.97;14.00;;;;;;;;;;4958831;28;20220;-72
2024/01/03 18:30:03;;;;;;;33.67;14.50;;;;;;;;;;4957293;28;20239;-73
2024/01/03 18:32:29;;;;;;;31.77;14.43;;;;;;;;;;4950096;28;20232;-74
2024/01/03 18:34:54;;;;;;;28.23;13.30;;;;;;;;;;4961532;28;20212;-72
2024/01/03 18:37:20;;;;;;;29.07;13.80;;;;;;;;;;4961149;28;20259;-72
2024/01/03 18:39:45;;;;;;;29.80;13.80;;;;;;;;;;4948934;28;20220;-72
2024/01/03 18:42:10;;;;;;;29.07;13.80;;;;;;;;;;4937586;28;20220;-72
2024/01/03 18:44:36;;;;;;;27.27;13.53;;;;;;;;;;4959268;28;20881;-73
2024/01/03 18:47:01;;;;;;;28.90;13.47;;;;;;;;;;4958600;28;20717;-72
2024/01/03 18:49:27;;;;;;;31.13;15.03;;;;;;;;;;4967254;28;20232;-74
2024/01/03 18:51:52;;;;;;;33.40;16.13;;;;;;;;;;4965727;28;20713;-74
2024/01/03 18:54:17;;;;;;;32.47;15.37;;;;;;;;;;4943002;28;20235;-74
2024/01/03 18:56:44;;;;;;;35.33;15.83;;;;;;;;;;4962084;28;20239;-73
2024/01/03 18:59:10;;;;;;;37.37;16.37;;;;;;;;;;4954844;28;20265;-73
2024/01/03 19:01:35;;;;;;;37.03;16.60;;;;;;;;;;4966270;28;20224;-74
2024/01/03 19:04:00;;;;;;;37.17;14.90;;;;;;;;;;4958454;28;20220;-72
2024/01/03 19:06:27;;;;;;;38.37;15.43;;;;;;;;;;4957049;28;20262;-72